sensor_id;sensor_type;location;lat;lon;timestamp;pressure;altitude;pressure_sealevel;temperature;humidity
57086;BME280;42964;42.910;23.792;2023-05-22T00:00:30;97543.34;;;12.76;96.49
57086;BME280;42964;42.910;23.792;2023-05-22T00:05:33;97543.31;;;12.81;96.01
57086;BME280;42964;42.910;23.792;2023-05-22T00:10:39;97534.69;;;12.76;95.47
57086;BME280;42964;42.910;23.792;2023-05-22T00:15:38;97551.03;;;12.88;96.34
57086;BME280;42964;42.910;23.792;2023-05-22T00:20:37;97539.97;;;12.69;96.75
57086;BME280;42964;42.910;23.792;2023-05-22T00:25:36;97535.50;;;12.81;96.07
57086;BME280;42964;42.910;23.792;2023-05-22T00:30:35;97538.94;;;12.83;95.68
57086;BME280;42964;42.910;23.792;2023-05-22T00:35:34;97519.97;;;12.75;95.87
57086;BME280;42964;42.910;23.792;2023-05-22T00:40:33;97545.78;;;12.91;96.19
57086;BME280;42964;42.910;23.792;2023-05-22T00:45:32;97545.88;;;12.84;97.07
57086;BME280;42964;42.910;23.792;2023-05-22T00:50:31;97549.28;;;12.89;96.95
57086;BME280;42964;42.910;23.792;2023-05-22T00:55:30;97542.13;;;13.03;96.64
57086;BME280;42964;42.910;23.792;2023-05-22T01:00:29;97542.88;;;13.11;96.52
57086;BME280;42964;42.910;23.792;2023-05-22T01:05:32;97496.22;;;12.96;96.32
57086;BME280;42964;42.910;23.792;2023-05-22T01:10:32;97525.31;;;13.26;96.00
57086;BME280;42964;42.910;23.792;2023-05-22T01:15:39;97530.56;;;13.23;96.09
57086;BME280;42964;42.910;23.792;2023-05-22T01:20:42;97527.16;;;13.19;96.12
57086;BME280;42964;42.910;23.792;2023-05-22T01:26:00;97519.34;;;13.16;95.61
57086;BME280;42964;42.910;23.792;2023-05-22T01:31:04;97502.22;;;13.00;95.43
57086;BME280;42964;42.910;23.792;2023-05-22T01:36:06;97405.94;;;12.38;95.34
57086;BME280;42964;42.910;23.792;2023-05-22T01:41:06;97521.44;;;12.94;95.43
57086;BME280;42964;42.910;23.792;2023-05-22T01:46:05;97522.41;;;12.85;95.89
57086;BME280;42964;42.910;23.792;2023-05-22T01:51:12;97512.22;;;12.68;96.58
57086;BME280;42964;42.910;23.792;2023-05-22T01:56:22;97523.44;;;12.73;96.60
57086;BME280;42964;42.910;23.792;2023-05-22T02:01:29;97520.88;;;12.70;96.61
57086;BME280;42964;42.910;23.792;2023-05-22T02:06:31;97507.03;;;12.67;96.13
57086;BME280;42964;42.910;23.792;2023-05-22T02:11:31;97510.41;;;12.73;95.92
57086;BME280;42964;42.910;23.792;2023-05-22T02:16:31;97512.13;;;12.76;96.17
57086;BME280;42964;42.910;23.792;2023-05-22T02:21:33;97505.13;;;12.80;95.94
57086;BME280;42964;42.910;23.792;2023-05-22T02:26:32;97510.28;;;12.83;95.99
57086;BME280;42964;42.910;23.792;2023-05-22T02:31:31;97511.13;;;12.85;96.34
57086;BME280;42964;42.910;23.792;2023-05-22T02:36:30;97507.63;;;12.86;95.97
57086;BME280;42964;42.910;23.792;2023-05-22T02:41:29;97462.03;;;12.59;96.16
57086;BME280;42964;42.910;23.792;2023-05-22T02:46:28;97511.19;;;12.82;96.09
57086;BME280;42964;42.910;23.792;2023-05-22T02:51:27;97505.22;;;12.73;96.22
57086;BME280;42964;42.910;23.792;2023-05-22T02:56:26;97508.03;;;12.57;97.64
57086;BME280;42964;42.910;23.792;2023-05-22T03:01:26;97501.13;;;12.56;97.47
57086;BME280;42964;42.910;23.792;2023-05-22T03:06:27;97507.41;;;12.38;97.64
57086;BME280;42964;42.910;23.792;2023-05-22T03:11:27;97465.34;;;11.99;97.90
57086;BME280;42964;42.910;23.792;2023-05-22T03:16:26;97515.31;;;12.27;98.11
57086;BME280;42964;42.910;23.792;2023-05-22T03:21:25;97512.69;;;12.33;97.88
57086;BME280;42964;42.910;23.792;2023-05-22T03:26:24;97488.47;;;12.28;97.60
57086;BME280;42964;42.910;23.792;2023-05-22T03:31:27;97514.22;;;12.49;97.51
57086;BME280;42964;42.910;23.792;2023-05-22T03:36:26;97511.38;;;12.66;97.49
57086;BME280;42964;42.910;23.792;2023-05-22T03:41:25;97514.72;;;12.76;97.27
57086;BME280;42964;42.910;23.792;2023-05-22T03:46:24;97508.66;;;12.76;97.41
57086;BME280;42964;42.910;23.792;2023-05-22T03:51:24;97500.84;;;12.74;97.31
57086;BME280;42964;42.910;23.792;2023-05-22T03:56:22;97515.44;;;12.86;97.02
57086;BME280;42964;42.910;23.792;2023-05-22T04:01:21;97506.81;;;12.84;96.30
57086;BME280;42964;42.910;23.792;2023-05-22T04:06:21;97505.81;;;12.92;96.62
57086;BME280;42964;42.910;23.792;2023-05-22T04:11:21;97479.00;;;12.86;96.23
57086;BME280;42964;42.910;23.792;2023-05-22T04:16:19;97509.06;;;13.08;96.12
57086;BME280;42964;42.910;23.792;2023-05-22T04:21:19;97461.56;;;12.91;96.05
57086;BME280;42964;42.910;23.792;2023-05-22T04:26:18;97499.34;;;13.20;96.21
57086;BME280;42964;42.910;23.792;2023-05-22T04:31:18;97502.66;;;13.28;95.76
57086;BME280;42964;42.910;23.792;2023-05-22T04:36:21;97496.72;;;13.21;94.98
57086;BME280;42964;42.910;23.792;2023-05-22T04:41:20;97470.75;;;13.15;95.40
57086;BME280;42964;42.910;23.792;2023-05-22T04:46:25;97489.69;;;13.25;95.75
57086;BME280;42964;42.910;23.792;2023-05-22T04:51:27;97503.34;;;13.41;95.64
57086;BME280;42964;42.910;23.792;2023-05-22T04:56:27;97497.31;;;13.37;96.24
57086;BME280;42964;42.910;23.792;2023-05-22T05:01:27;97493.72;;;13.44;95.69
57086;BME280;42964;42.910;23.792;2023-05-22T05:06:27;97496.22;;;13.52;96.09
57086;BME280;42964;42.910;23.792;2023-05-22T05:11:26;97498.47;;;13.75;95.75
57086;BME280;42964;42.910;23.792;2023-05-22T05:16:25;97508.34;;;14.06;95.78
57086;BME280;42964;42.910;23.792;2023-05-22T05:21:24;97506.97;;;14.31;94.47
57086;BME280;42964;42.910;23.792;2023-05-22T05:26:25;97519.50;;;14.56;93.36
57086;BME280;42964;42.910;23.792;2023-05-22T05:31:24;97511.31;;;14.74;92.57
57086;BME280;42964;42.910;23.792;2023-05-22T05:36:23;97521.28;;;14.97;92.02
57086;BME280;42964;42.910;23.792;2023-05-22T05:41:23;97507.69;;;15.20;90.63
57086;BME280;42964;42.910;23.792;2023-05-22T05:46:22;97523.84;;;15.36;87.50
57086;BME280;42964;42.910;23.792;2023-05-22T05:51:21;97493.19;;;15.43;86.44
57086;BME280;42964;42.910;23.792;2023-05-22T05:56:20;97527.63;;;15.96;86.43
57086;BME280;42964;42.910;23.792;2023-05-22T06:01:19;97525.81;;;15.98;86.66
57086;BME280;42964;42.910;23.792;2023-05-22T06:06:20;97524.66;;;16.08;86.66
57086;BME280;42964;42.910;23.792;2023-05-22T06:11:23;97523.66;;;16.45;85.85
57086;BME280;42964;42.910;23.792;2023-05-22T06:16:22;97522.97;;;16.70;83.01
57086;BME280;42964;42.910;23.792;2023-05-22T06:21:21;97528.63;;;16.86;82.03
57086;BME280;42964;42.910;23.792;2023-05-22T06:26:20;97474.88;;;16.41;80.35
57086;BME280;42964;42.910;23.792;2023-05-22T06:31:21;97521.59;;;16.57;80.28
57086;BME280;42964;42.910;23.792;2023-05-22T06:36:20;97509.63;;;16.78;79.55
57086;BME280;42964;42.910;23.792;2023-05-22T06:41:19;97499.66;;;16.90;79.42
57086;BME280;42964;42.910;23.792;2023-05-22T06:46:19;97504.56;;;17.03;75.93
57086;BME280;42964;42.910;23.792;2023-05-22T06:51:18;97491.94;;;17.14;74.62
57086;BME280;42964;42.910;23.792;2023-05-22T06:56:17;97464.13;;;17.10;73.84
57086;BME280;42964;42.910;23.792;2023-05-22T07:01:16;97504.69;;;17.53;71.54
57086;BME280;42964;42.910;23.792;2023-05-22T07:06:16;97503.00;;;17.52;70.38
57086;BME280;42964;42.910;23.792;2023-05-22T07:11:15;97485.47;;;17.52;72.00
57086;BME280;42964;42.910;23.792;2023-05-22T07:16:14;97490.97;;;17.71;72.26
57086;BME280;42964;42.910;23.792;2023-05-22T07:21:13;97472.91;;;17.62;71.63
57086;BME280;42964;42.910;23.792;2023-05-22T07:26:12;97487.81;;;17.87;70.63
57086;BME280;42964;42.910;23.792;2023-05-22T07:31:11;97488.31;;;18.23;71.06
57086;BME280;42964;42.910;23.792;2023-05-22T07:36:10;97491.75;;;18.25;68.57
57086;BME280;42964;42.910;23.792;2023-05-22T07:41:09;97492.81;;;18.43;69.89
57086;BME280;42964;42.910;23.792;2023-05-22T07:46:09;97470.31;;;18.36;66.92
57086;BME280;42964;42.910;23.792;2023-05-22T07:51:08;97495.13;;;18.52;67.43
57086;BME280;42964;42.910;23.792;2023-05-22T07:56:07;97497.31;;;18.65;68.51
57086;BME280;42964;42.910;23.792;2023-05-22T08:01:08;97489.31;;;18.91;66.51
57086;BME280;42964;42.910;23.792;2023-05-22T08:06:07;97488.75;;;19.27;66.23
57086;BME280;42964;42.910;23.792;2023-05-22T08:11:06;97487.22;;;19.43;63.35
57086;BME280;42964;42.910;23.792;2023-05-22T08:16:05;97485.97;;;19.74;63.15
57086;BME280;42964;42.910;23.792;2023-05-22T08:21:04;97491.72;;;19.84;62.93
57086;BME280;42964;42.910;23.792;2023-05-22T08:26:05;97443.47;;;19.63;60.44
57086;BME280;42964;42.910;23.792;2023-05-22T08:31:06;97487.63;;;20.18;60.22
57086;BME280;42964;42.910;23.792;2023-05-22T08:36:07;97493.72;;;20.39;58.49
57086;BME280;42964;42.910;23.792;2023-05-22T08:41:07;97483.53;;;20.31;56.82
57086;BME280;42964;42.910;23.792;2023-05-22T08:46:06;97464.84;;;20.94;56.71
57086;BME280;42964;42.910;23.792;2023-05-22T08:51:07;97480.31;;;21.21;53.58
57086;BME280;42964;42.910;23.792;2023-05-22T08:56:06;97483.75;;;21.40;53.13
57086;BME280;42964;42.910;23.792;2023-05-22T09:01:06;97470.19;;;21.83;53.80
57086;BME280;42964;42.910;23.792;2023-05-22T09:06:06;97468.19;;;21.53;52.51
57086;BME280;42964;42.910;23.792;2023-05-22T09:11:08;97463.97;;;21.66;52.22
57086;BME280;42964;42.910;23.792;2023-05-22T09:16:10;97462.66;;;21.40;52.70
57086;BME280;42964;42.910;23.792;2023-05-22T09:21:10;97464.56;;;20.81;55.30
57086;BME280;42964;42.910;23.792;2023-05-22T09:26:10;97466.41;;;20.60;55.93
57086;BME280;42964;42.910;23.792;2023-05-22T09:31:09;97468.16;;;20.61;55.51
57086;BME280;42964;42.910;23.792;2023-05-22T09:36:08;97465.94;;;20.52;54.09
57086;BME280;42964;42.910;23.792;2023-05-22T09:41:08;97448.59;;;20.84;53.49
57086;BME280;42964;42.910;23.792;2023-05-22T09:46:07;97456.59;;;20.83;54.64
57086;BME280;42964;42.910;23.792;2023-05-22T09:51:06;97428.22;;;20.69;54.31
57086;BME280;42964;42.910;23.792;2023-05-22T09:56:12;97462.72;;;20.83;54.60
57086;BME280;42964;42.910;23.792;2023-05-22T10:01:11;97460.56;;;21.10;54.73
57086;BME280;42964;42.910;23.792;2023-05-22T10:06:13;97404.88;;;20.98;51.94
57086;BME280;42964;42.910;23.792;2023-05-22T10:11:14;97452.72;;;21.80;50.78
57086;BME280;42964;42.910;23.792;2023-05-22T10:16:14;97451.31;;;22.08;49.83
57086;BME280;42964;42.910;23.792;2023-05-22T10:21:15;97418.16;;;21.67;49.89
57086;BME280;42964;42.910;23.792;2023-05-22T10:26:15;97452.97;;;21.58;49.89
57086;BME280;42964;42.910;23.792;2023-05-22T10:31:26;97454.28;;;21.84;50.17
57086;BME280;42964;42.910;23.792;2023-05-22T10:42:03;97451.06;;;22.30;49.78
57086;BME280;42964;42.910;23.792;2023-05-22T10:47:09;97425.25;;;22.02;49.48
57086;BME280;42964;42.910;23.792;2023-05-22T10:52:09;97403.16;;;22.03;49.48
57086;BME280;42964;42.910;23.792;2023-05-22T10:57:18;97428.09;;;22.14;49.80
57086;BME280;42964;42.910;23.792;2023-05-22T11:02:24;97416.88;;;22.43;48.27
57086;BME280;42964;42.910;23.792;2023-05-22T11:07:39;97422.72;;;22.65;47.45
57086;BME280;42964;42.910;23.792;2023-05-22T11:12:38;97412.44;;;22.43;47.53
57086;BME280;42964;42.910;23.792;2023-05-22T11:17:40;97417.97;;;22.38;48.82
57086;BME280;42964;42.910;23.792;2023-05-22T11:22:41;97421.00;;;22.15;48.25
57086;BME280;42964;42.910;23.792;2023-05-22T11:27:41;97418.88;;;22.22;47.93
57086;BME280;42964;42.910;23.792;2023-05-22T11:32:42;97405.00;;;22.34;47.88
57086;BME280;42964;42.910;23.792;2023-05-22T11:37:42;97410.03;;;22.38;46.59
57086;BME280;42964;42.910;23.792;2023-05-22T11:42:42;97409.75;;;22.60;47.08
57086;BME280;42964;42.910;23.792;2023-05-22T11:47:41;97399.16;;;22.92;45.18
57086;BME280;42964;42.910;23.792;2023-05-22T11:52:41;97405.13;;;22.64;46.61
57086;BME280;42964;42.910;23.792;2023-05-22T11:57:40;97395.28;;;23.14;45.82
57086;BME280;42964;42.910;23.792;2023-05-22T12:02:44;97397.41;;;23.23;44.15
57086;BME280;42964;42.910;23.792;2023-05-22T12:07:44;97395.19;;;23.47;43.68
57086;BME280;42964;42.910;23.792;2023-05-22T12:12:43;97389.16;;;23.59;44.85
57086;BME280;42964;42.910;23.792;2023-05-22T12:17:42;97366.84;;;23.92;42.77
57086;BME280;42964;42.910;23.792;2023-05-22T12:22:42;97377.16;;;24.54;42.96
57086;BME280;42964;42.910;23.792;2023-05-22T12:27:42;97382.31;;;24.28;43.21
57086;BME280;42964;42.910;23.792;2023-05-22T12:32:46;97379.19;;;23.49;44.16
57086;BME280;42964;42.910;23.792;2023-05-22T12:37:48;97378.50;;;22.99;45.24
57086;BME280;42964;42.910;23.792;2023-05-22T12:42:47;97374.84;;;22.86;45.08
57086;BME280;42964;42.910;23.792;2023-05-22T12:47:47;97358.47;;;22.63;46.04
57086;BME280;42964;42.910;23.792;2023-05-22T12:52:46;97364.69;;;22.62;48.43
57086;BME280;42964;42.910;23.792;2023-05-22T12:57:45;97373.91;;;21.38;60.62
57086;BME280;42964;42.910;23.792;2023-05-22T13:02:44;97374.16;;;20.41;66.52
57086;BME280;42964;42.910;23.792;2023-05-22T13:07:43;97373.25;;;20.03;71.62
57086;BME280;42964;42.910;23.792;2023-05-22T13:12:42;97383.88;;;20.20;74.63
57086;BME280;42964;42.910;23.792;2023-05-22T13:17:44;97378.06;;;20.52;72.97
57086;BME280;42964;42.910;23.792;2023-05-22T13:22:43;97363.16;;;20.69;68.79
57086;BME280;42964;42.910;23.792;2023-05-22T13:27:42;97361.34;;;20.53;62.90
57086;BME280;42964;42.910;23.792;2023-05-22T13:32:41;97359.97;;;20.63;64.58
57086;BME280;42964;42.910;23.792;2023-05-22T13:37:40;97362.38;;;20.67;64.20
57086;BME280;42964;42.910;23.792;2023-05-22T13:42:39;97357.03;;;20.69;61.12
57086;BME280;42964;42.910;23.792;2023-05-22T13:47:38;97372.09;;;20.48;59.55
57086;BME280;42964;42.910;23.792;2023-05-22T13:52:37;97377.34;;;20.29;59.81
57086;BME280;42964;42.910;23.792;2023-05-22T13:57:36;97371.97;;;20.12;57.74
57086;BME280;42964;42.910;23.792;2023-05-22T14:02:38;97381.28;;;20.00;56.63
57086;BME280;42964;42.910;23.792;2023-05-22T14:07:37;97371.41;;;20.05;54.89
57086;BME280;42964;42.910;23.792;2023-05-22T14:12:36;97386.25;;;19.87;55.92
57086;BME280;42964;42.910;23.792;2023-05-22T14:17:36;97362.44;;;20.09;56.99
57086;BME280;42964;42.910;23.792;2023-05-22T14:22:35;97391.31;;;20.31;54.57
57086;BME280;42964;42.910;23.792;2023-05-22T14:27:34;97392.13;;;19.94;55.28
57086;BME280;42964;42.910;23.792;2023-05-22T14:32:32;97388.16;;;20.23;57.02
57086;BME280;42964;42.910;23.792;2023-05-22T14:37:31;97376.19;;;21.09;56.32
57086;BME280;42964;42.910;23.792;2023-05-22T14:42:30;97371.47;;;21.68;53.24
57086;BME280;42964;42.910;23.792;2023-05-22T14:47:29;97347.97;;;22.46;46.01
57086;BME280;42964;42.910;23.792;2023-05-22T14:52:28;97335.00;;;22.57;46.01
57086;BME280;42964;42.910;23.792;2023-05-22T14:57:27;97362.13;;;22.92;44.29
57086;BME280;42964;42.910;23.792;2023-05-22T15:02:26;97337.50;;;22.44;44.75
57086;BME280;42964;42.910;23.792;2023-05-22T15:07:25;97363.59;;;22.34;46.28
57086;BME280;42964;42.910;23.792;2023-05-22T15:12:24;97370.38;;;20.66;56.21
57086;BME280;42964;42.910;23.792;2023-05-22T15:17:23;97354.84;;;19.00;66.97
57086;BME280;42964;42.910;23.792;2023-05-22T15:22:22;97379.19;;;18.38;72.42
57086;BME280;42964;42.910;23.792;2023-05-22T15:27:21;97377.16;;;18.23;74.91
57086;BME280;42964;42.910;23.792;2023-05-22T15:32:20;97381.59;;;18.21;77.99
57086;BME280;42964;42.910;23.792;2023-05-22T15:37:19;97382.91;;;18.09;78.50
57086;BME280;42964;42.910;23.792;2023-05-22T15:42:18;97371.09;;;18.21;79.11
57086;BME280;42964;42.910;23.792;2023-05-22T15:47:17;97371.31;;;18.14;77.09
57086;BME280;42964;42.910;23.792;2023-05-22T15:52:16;97359.13;;;18.35;77.77
57086;BME280;42964;42.910;23.792;2023-05-22T15:57:15;97355.56;;;18.60;79.12
57086;BME280;42964;42.910;23.792;2023-05-22T16:02:14;97334.22;;;18.68;76.39
57086;BME280;42964;42.910;23.792;2023-05-22T16:07:13;97315.03;;;18.88;76.37
57086;BME280;42964;42.910;23.792;2023-05-22T16:12:12;97344.28;;;19.43;75.89
57086;BME280;42964;42.910;23.792;2023-05-22T16:17:11;97344.34;;;19.62;73.50
57086;BME280;42964;42.910;23.792;2023-05-22T16:22:11;97365.88;;;19.91;72.33
57086;BME280;42964;42.910;23.792;2023-05-22T16:27:10;97372.31;;;20.04;72.37
57086;BME280;42964;42.910;23.792;2023-05-22T16:32:09;97374.41;;;20.16;73.23
57086;BME280;42964;42.910;23.792;2023-05-22T16:37:08;97357.53;;;20.20;73.09
57086;BME280;42964;42.910;23.792;2023-05-22T16:42:07;97355.31;;;20.11;70.93
57086;BME280;42964;42.910;23.792;2023-05-22T16:47:06;97386.56;;;20.00;72.27
57086;BME280;42964;42.910;23.792;2023-05-22T16:52:05;97396.72;;;19.89;71.87
57086;BME280;42964;42.910;23.792;2023-05-22T16:57:04;97398.84;;;19.60;69.99
57086;BME280;42964;42.910;23.792;2023-05-22T17:02:03;97402.22;;;19.21;70.48
57086;BME280;42964;42.910;23.792;2023-05-22T17:07:03;97403.31;;;18.71;71.58
57086;BME280;42964;42.910;23.792;2023-05-22T17:12:02;97431.66;;;18.39;73.94
57086;BME280;42964;42.910;23.792;2023-05-22T17:17:01;97429.00;;;18.17;75.70
57086;BME280;42964;42.910;23.792;2023-05-22T17:22:00;97441.50;;;18.11;77.26
57086;BME280;42964;42.910;23.792;2023-05-22T17:26:59;97439.03;;;18.06;78.15
57086;BME280;42964;42.910;23.792;2023-05-22T17:31:58;97443.81;;;17.95;81.72
57086;BME280;42964;42.910;23.792;2023-05-22T17:36:57;97447.75;;;17.82;83.39
57086;BME280;42964;42.910;23.792;2023-05-22T17:41:59;97455.88;;;17.74;84.21
57086;BME280;42964;42.910;23.792;2023-05-22T17:46:59;97493.91;;;17.62;86.21
57086;BME280;42964;42.910;23.792;2023-05-22T17:51:58;97522.53;;;17.15;88.77
57086;BME280;42964;42.910;23.792;2023-05-22T17:56:57;97521.56;;;16.89;87.74
57086;BME280;42964;42.910;23.792;2023-05-22T18:01:56;97516.00;;;16.69;85.93
57086;BME280;42964;42.910;23.792;2023-05-22T18:06:55;97524.00;;;16.64;86.02
57086;BME280;42964;42.910;23.792;2023-05-22T18:11:54;97522.03;;;16.72;86.15
57086;BME280;42964;42.910;23.792;2023-05-22T18:16:53;97514.22;;;16.69;86.03
57086;BME280;42964;42.910;23.792;2023-05-22T18:21:52;97523.91;;;16.67;85.61
57086;BME280;42964;42.910;23.792;2023-05-22T18:26:51;97540.09;;;16.50;84.82
57086;BME280;42964;42.910;23.792;2023-05-22T18:31:50;97532.50;;;16.41;85.00
57086;BME280;42964;42.910;23.792;2023-05-22T18:36:50;97530.13;;;16.32;85.71
57086;BME280;42964;42.910;23.792;2023-05-22T18:41:50;97513.09;;;16.17;85.90
57086;BME280;42964;42.910;23.792;2023-05-22T18:46:49;97511.81;;;15.99;85.54
57086;BME280;42964;42.910;23.792;2023-05-22T18:51:48;97506.03;;;15.88;85.22
57086;BME280;42964;42.910;23.792;2023-05-22T18:56:47;97511.34;;;15.85;85.82
57086;BME280;42964;42.910;23.792;2023-05-22T19:01:46;97527.63;;;15.60;86.17
57086;BME280;42964;42.910;23.792;2023-05-22T19:06:45;97516.47;;;15.16;87.37
57086;BME280;42964;42.910;23.792;2023-05-22T19:11:43;97551.41;;;15.12;88.27
57086;BME280;42964;42.910;23.792;2023-05-22T19:16:42;97550.28;;;14.85;88.35
57086;BME280;42964;42.910;23.792;2023-05-22T19:21:41;97562.47;;;14.85;88.41
57086;BME280;42964;42.910;23.792;2023-05-22T19:26:40;97544.81;;;14.96;89.20
57086;BME280;42964;42.910;23.792;2023-05-22T19:31:39;97540.41;;;14.98;90.01
57086;BME280;42964;42.910;23.792;2023-05-22T19:36:38;97558.44;;;15.10;90.70
57086;BME280;42964;42.910;23.792;2023-05-22T19:41:37;97558.31;;;15.16;90.35
57086;BME280;42964;42.910;23.792;2023-05-22T19:46:36;97526.31;;;15.05;90.72
57086;BME280;42964;42.910;23.792;2023-05-22T19:51:35;97551.22;;;15.20;90.55
57086;BME280;42964;42.910;23.792;2023-05-22T19:56:34;97547.72;;;15.22;90.97
57086;BME280;42964;42.910;23.792;2023-05-22T20:01:34;97546.19;;;15.12;90.91
57086;BME280;42964;42.910;23.792;2023-05-22T20:06:33;97560.84;;;15.19;90.63
57086;BME280;42964;42.910;23.792;2023-05-22T20:11:32;97563.53;;;15.16;90.61
57086;BME280;42964;42.910;23.792;2023-05-22T20:16:31;97569.88;;;15.06;90.09
57086;BME280;42964;42.910;23.792;2023-05-22T20:21:30;97571.69;;;15.01;89.27
57086;BME280;42964;42.910;23.792;2023-05-22T20:26:29;97559.63;;;14.97;89.52
57086;BME280;42964;42.910;23.792;2023-05-22T20:31:28;97551.97;;;14.88;89.48
57086;BME280;42964;42.910;23.792;2023-05-22T20:36:27;97547.06;;;14.72;89.88
57086;BME280;42964;42.910;23.792;2023-05-22T20:41:26;97556.06;;;14.56;91.24
57086;BME280;42964;42.910;23.792;2023-05-22T20:46:25;97552.81;;;14.45;91.60
57086;BME280;42964;42.910;23.792;2023-05-22T20:51:24;97550.47;;;14.31;91.61
57086;BME280;42964;42.910;23.792;2023-05-22T20:56:29;97546.34;;;14.19;91.95
57086;BME280;42964;42.910;23.792;2023-05-22T21:01:28;97537.06;;;14.04;91.88
57086;BME280;42964;42.910;23.792;2023-05-22T21:06:27;97556.34;;;13.95;91.93
57086;BME280;42964;42.910;23.792;2023-05-22T21:11:26;97530.69;;;13.71;92.05
57086;BME280;42964;42.910;23.792;2023-05-22T21:16:26;97561.09;;;13.72;91.85
57086;BME280;42964;42.910;23.792;2023-05-22T21:21:24;97558.63;;;13.63;92.14
57086;BME280;42964;42.910;23.792;2023-05-22T21:26:23;97559.63;;;13.55;92.21
57086;BME280;42964;42.910;23.792;2023-05-22T21:31:22;97553.66;;;13.44;92.14
57086;BME280;42964;42.910;23.792;2023-05-22T21:36:21;97550.41;;;13.30;92.56
57086;BME280;42964;42.910;23.792;2023-05-22T21:41:20;97540.25;;;13.11;93.16
57086;BME280;42964;42.910;23.792;2023-05-22T21:46:19;97548.38;;;12.93;94.09
57086;BME280;42964;42.910;23.792;2023-05-22T21:51:20;97556.19;;;12.90;94.44
57086;BME280;42964;42.910;23.792;2023-05-22T21:56:18;97552.81;;;12.85;94.41
57086;BME280;42964;42.910;23.792;2023-05-22T22:01:17;97551.97;;;12.83;94.05
57086;BME280;42964;42.910;23.792;2023-05-22T22:06:16;97559.78;;;12.81;94.40
57086;BME280;42964;42.910;23.792;2023-05-22T22:11:15;97564.25;;;12.73;95.27
57086;BME280;42964;42.910;23.792;2023-05-22T22:16:14;97555.59;;;12.71;95.41
57086;BME280;42964;42.910;23.792;2023-05-22T22:21:14;97553.00;;;12.69;95.71
57086;BME280;42964;42.910;23.792;2023-05-22T22:26:12;97555.69;;;12.63;96.12
57086;BME280;42964;42.910;23.792;2023-05-22T22:31:11;97450.72;;;11.90;96.54
57086;BME280;42964;42.910;23.792;2023-05-22T22:36:10;97552.31;;;12.55;96.20
57086;BME280;42964;42.910;23.792;2023-05-22T22:41:09;97546.28;;;12.51;95.69
57086;BME280;42964;42.910;23.792;2023-05-22T22:46:08;97544.66;;;12.43;96.39
57086;BME280;42964;42.910;23.792;2023-05-22T22:51:07;97538.72;;;12.27;98.15
57086;BME280;42964;42.910;23.792;2023-05-22T22:56:07;97538.84;;;12.16;98.56
57086;BME280;42964;42.910;23.792;2023-05-22T23:01:06;97548.38;;;12.17;98.43
57086;BME280;42964;42.910;23.792;2023-05-22T23:06:04;97536.25;;;12.15;98.43
57086;BME280;42964;42.910;23.792;2023-05-22T23:11:04;97543.16;;;12.19;98.04
57086;BME280;42964;42.910;23.792;2023-05-22T23:16:02;97544.84;;;12.23;97.58
57086;BME280;42964;42.910;23.792;2023-05-22T23:21:01;97536.16;;;12.22;97.13
57086;BME280;42964;42.910;23.792;2023-05-22T23:26:00;97534.50;;;12.18;97.05
57086;BME280;42964;42.910;23.792;2023-05-22T23:30:59;97531.91;;;12.18;96.95
57086;BME280;42964;42.910;23.792;2023-05-22T23:35:58;97539.72;;;12.15;96.82
57086;BME280;42964;42.910;23.792;2023-05-22T23:40:57;97532.03;;;12.04;97.32
57086;BME280;42964;42.910;23.792;2023-05-22T23:45:55;97540.75;;;11.99;97.33
57086;BME280;42964;42.910;23.792;2023-05-22T23:50:55;97534.75;;;11.95;97.23
57086;BME280;42964;42.910;23.792;2023-05-22T23:55:54;97547.78;;;11.91;97.17
